Time;durP1;ratioP1;P1;durP2;ratioP2;P2;SDS_P1;SDS_P2;PMS_P1;PMS_P2;Temp;Humidity;BMP_temperature;BMP_pressure;BME280_temperature;BME280_humidity;BME280_pressure;Samples;Min_cycle;Max_cycle;Signal;HPM_P1;HPM_P2
2022/04/17 00:01:02;;;;;;;;;7.00;4.50;;;;;12.64;100.00;102229.69;6206246;22;44869;-88
2022/04/17 00:03:35;;;;;;;;;3.25;3.25;;;;;12.61;100.00;102234.22;6228635;22;46604;-89
2022/04/17 00:06:10;;;;;;;;;7.40;5.20;;;;;12.58;100.00;102236.19;6189672;23;45489;-85
2022/04/17 00:08:57;;;;;;;;;5.75;4.25;;;;;12.58;100.00;102220.19;6157567;23;44831;-90
2022/04/17 00:11:53;;;;;;;;;4.50;4.50;;;;;12.52;100.00;102218.72;6158388;23;45435;-88
2022/04/17 00:14:38;;;;;;;;;6.25;6.25;;;;;12.48;100.00;102211.81;6160437;23;45415;-88
2022/04/17 00:17:24;;;;;;;;;6.60;4.80;;;;;12.49;100.00;102218.88;6140896;23;44727;-88
2022/04/17 00:20:21;;;;;;;;;;;;;;;;;;;;;
2022/04/17 00:23:04;;;;;;;;;2.00;2.00;;;;;12.39;100.00;102214.09;6169040;23;69225;-88
2022/04/17 00:25:51;;;;;;;;;5.75;5.75;;;;;12.30;100.00;102212.75;6151956;23;46445;-88
2022/04/17 00:28:29;;;;;;;;;4.40;4.00;;;;;12.26;100.00;102208.50;6150456;23;45329;-87
2022/04/17 00:31:23;;;;;;;;;;;;;;;;;;;;;
2022/04/17 00:34:30;;;;;;;;;4.00;4.00;;;;;12.21;100.00;102210.53;6174297;23;70474;-88
2022/04/17 00:37:02;;;;;;;;;4.00;4.00;;;;;12.16;100.00;102202.78;6171322;23;46621;-87
2022/04/17 00:40:15;;;;;;;;;8.00;4.00;;;;;12.12;100.00;102203.00;6186162;23;44789;-89
2022/04/17 00:43:36;;;;;;;;;;;;;;;;;;;;;
2022/04/17 00:47:32;;;;;;;;;4.50;4.00;;;;;11.99;100.00;102195.63;6142344;23;69403;-86
2022/04/17 00:49:58;;;;;;;;;5.50;4.50;;;;;11.95;100.00;102199.38;6187198;23;45484;-86
2022/04/17 00:52:32;;;;;;;;;3.40;3.20;;;;;11.90;100.00;102198.75;6192898;22;45432;-87
2022/04/17 00:55:02;;;;;;;;;3.25;3.25;;;;;11.82;100.00;102195.59;6223324;22;45259;-88
2022/04/17 00:57:32;;;;;;;;;7.00;4.00;;;;;11.77;100.00;102189.59;6224591;22;44904;-89
2022/04/17 01:00:24;;;;;;;;;7.75;5.00;;;;;11.72;100.00;102196.94;6226594;22;45144;-86
2022/04/17 01:02:55;;;;;;;;;5.00;5.00;;;;;11.69;100.00;102189.09;6226351;22;44702;-88
2022/04/17 01:05:30;;;;;;;;;4.50;4.50;;;;;11.67;100.00;102191.84;6224793;22;44884;-88
2022/04/17 01:08:14;;;;;;;;;5.00;5.00;;;;;11.64;100.00;102196.44;6221223;22;44885;-88
2022/04/17 01:10:46;;;;;;;;;6.00;5.00;;;;;11.60;100.00;102187.72;6214039;22;46601;-87
2022/04/17 01:13:36;;;;;;;;;6.00;6.00;;;;;11.54;100.00;102190.69;6253560;22;44696;-88
2022/04/17 01:16:25;;;;;;;;;5.50;5.50;;;;;11.50;100.00;102187.31;6249080;22;45212;-88
2022/04/17 01:19:17;;;;;;;;;4.00;4.00;;;;;11.44;100.00;102187.59;6221920;22;45022;-88
2022/04/17 01:21:51;;;;;;;;;4.75;4.75;;;;;11.41;100.00;102194.88;6223388;22;45208;-88
2022/04/17 01:27:03;;;;;;;;;6.75;5.00;;;;;11.37;100.00;102185.31;6228619;22;44606;-89
2022/04/17 01:29:37;;;;;;;;;5.50;5.50;;;;;11.32;100.00;102181.09;6228533;22;44785;-88
2022/04/17 01:32:09;;;;;;;;;4.25;4.25;;;;;11.27;100.00;102175.13;6206481;22;46635;-88
2022/04/17 01:34:37;;;;;;;;;6.00;6.00;;;;;11.29;100.00;102173.22;6235736;22;44792;-88
2022/04/17 01:37:07;;;;;;;;;5.00;5.00;;;;;11.23;100.00;102162.88;6237045;22;44624;-87
2022/04/17 01:39:57;;;;;;;;;;;;;;;;;;;;;
2022/04/17 01:42:32;;;;;;;;;5.50;4.00;;;;;11.20;100.00;102170.13;6259311;22;75271;-89
2022/04/17 01:45:03;;;;;;;;;6.25;5.25;;;;;11.15;100.00;102159.72;6258074;22;44555;-88
2022/04/17 01:47:31;;;;;;;;;6.75;4.50;;;;;11.16;100.00;102165.88;6230106;22;44721;-86
2022/04/17 01:49:58;;;;;;;;;4.25;4.25;;;;;11.11;100.00;102159.91;6200640;22;44901;-89
2022/04/17 01:52:25;;;;;;;;;5.00;4.75;;;;;11.11;100.00;102166.09;6223665;22;46692;-87
2022/04/17 01:54:51;;;;;;;;;6.00;4.50;;;;;11.07;100.00;102157.44;6203147;22;44702;-88
2022/04/17 01:57:31;;;;;;;;;5.00;5.00;;;;;11.05;100.00;102159.28;6229073;22;45329;-87
2022/04/17 01:59:57;;;;;;;;;4.75;4.75;;;;;11.03;100.00;102166.47;6230175;22;45193;-88
2022/04/17 02:02:28;;;;;;;;;6.75;5.50;;;;;11.01;100.00;102165.66;6231830;22;45117;-88
2022/04/17 02:04:55;;;;;;;;;4.00;3.00;;;;;10.98;100.00;102165.81;6233729;22;45420;-88
2022/04/17 02:07:20;;;;;;;;;4.00;4.00;;;;;10.93;100.00;102159.84;6256270;22;45179;-87
2022/04/17 02:09:46;;;;;;;;;6.25;6.00;;;;;10.92;100.00;102163.41;6250825;22;44726;-88
2022/04/17 02:12:14;;;;;;;;;4.00;4.00;;;;;10.90;100.00;102164.44;6248914;22;45473;-86
2022/04/17 02:14:40;;;;;;;;;5.25;5.25;;;;;10.85;100.00;102161.13;6251192;22;44575;-89
2022/04/17 02:17:18;;;;;;;;;3.50;2.50;;;;;10.84;100.00;102164.72;6223175;22;44671;-88
2022/04/17 02:19:43;;;;;;;;;4.75;4.75;;;;;10.78;100.00;102163.19;6203376;22;44773;-88
2022/04/17 02:22:09;;;;;;;;;1.00;1.00;;;;;10.72;100.00;102147.50;6225784;22;45258;-89
2022/04/17 02:25:08;;;;;;;;;9.50;6.25;;;;;10.71;100.00;102162.59;6217377;22;44749;-88
2022/04/17 02:28:10;;;;;;;;;4.00;4.00;;;;;10.63;100.00;102147.91;6194106;22;44810;-88
2022/04/17 02:30:36;;;;;;;;;5.25;5.25;;;;;10.58;100.00;102148.13;6199676;22;44804;-86
2022/04/17 02:33:24;;;;;;;;;4.25;4.25;;;;;10.53;100.00;102150.97;6231995;22;45397;-86
2022/04/17 02:35:49;;;;;;;;;5.50;5.50;;;;;10.47;100.00;102145.09;6211683;22;44604;-88
2022/04/17 02:38:15;;;;;;;;;7.00;7.00;;;;;10.44;100.00;102135.47;6240879;22;44646;-87
2022/04/17 02:40:44;;;;;;;;;4.50;4.50;;;;;10.43;100.00;102140.84;6215036;22;44838;-88
2022/04/17 02:43:19;;;;;;;;;7.00;7.00;;;;;10.41;100.00;102140.91;6238220;22;45199;-88
2022/04/17 02:45:55;;;;;;;;;7.00;6.00;;;;;10.37;100.00;102138.44;6229874;22;45236;-87
2022/04/17 02:48:26;;;;;;;;;6.00;4.75;;;;;10.30;100.00;102127.25;6202981;22;44727;-88
2022/04/17 02:50:57;;;;;;;;;5.00;3.75;;;;;10.32;100.00;102129.81;6198742;22;45208;-90
2022/04/17 02:53:24;;;;;;;;;5.00;5.00;;;;;10.29;100.00;102125.50;6197324;22;45261;-87
2022/04/17 02:55:51;;;;;;;;;5.25;5.00;;;;;10.30;100.00;102127.25;6198805;22;44708;-88
2022/04/17 02:58:16;;;;;;;;;5.00;5.00;;;;;10.28;100.00;102135.25;6203957;22;44878;-87
2022/04/17 03:06:15;;;;;;;;;8.00;5.00;;;;;10.21;100.00;102116.97;6259959;22;44669;-86
2022/04/17 03:08:43;;;;;;;;;7.25;5.00;;;;;10.17;100.00;102113.59;6233771;22;44738;-86
2022/04/17 03:11:10;;;;;;;;;8.00;6.00;;;;;10.13;100.00;102109.34;6258022;22;45105;-87
2022/04/17 03:13:36;;;;;;;;;7.25;7.25;;;;;10.11;100.00;102103.25;6197335;22;45411;-88
2022/04/17 03:16:03;;;;;;;;;8.00;5.25;;;;;10.09;100.00;102112.19;6224243;22;45397;-87
2022/04/17 03:18:29;;;;;;;;;6.50;5.00;;;;;10.08;100.00;102113.13;6225877;22;45298;-85
2022/04/17 03:20:59;;;;;;;;;6.75;4.00;;;;;10.04;100.00;102105.28;6227760;22;44964;-87
2022/04/17 03:23:50;;;;;;;;;4.00;4.00;;;;;10.04;100.00;102101.75;6223686;22;46504;-88
2022/04/17 03:26:22;;;;;;;;;7.50;6.00;;;;;10.00;100.00;102103.66;6216885;22;44627;-88
2022/04/17 03:28:48;;;;;;;;;6.00;3.00;;;;;9.98;100.00;102102.03;6202155;22;44843;-87
2022/04/17 03:31:22;;;;;;;;;4.00;4.00;;;;;9.94;100.00;102103.94;6226522;22;44969;-88
2022/04/17 03:33:50;;;;;;;;;5.75;5.25;;;;;9.88;100.00;102103.34;6223895;22;46116;-87
2022/04/17 03:36:25;;;;;;;;;5.00;5.00;;;;;9.84;100.00;102099.09;6225108;22;45453;-87
2022/04/17 03:38:54;;;;;;;;;5.75;5.00;;;;;9.80;100.00;102101.00;6228343;22;45227;-87
2022/04/17 03:41:31;;;;;;;;;4.25;3.00;;;;;9.78;100.00;102098.41;6258552;22;45274;-88
2022/04/17 03:43:58;;;;;;;;;4.00;4.00;;;;;9.73;100.00;102096.91;6250061;22;45139;-88
2022/04/17 03:46:23;;;;;;;;;6.00;5.00;;;;;9.72;100.00;102098.69;6228544;22;44699;-88
2022/04/17 03:49:01;;;;;;;;;5.50;4.50;;;;;9.69;100.00;102095.28;6229987;22;45436;-88
2022/04/17 03:51:30;;;;;;;;;5.00;5.00;;;;;9.64;100.00;102099.94;6229099;22;45453;-86
2022/04/17 03:53:55;;;;;;;;;9.50;6.75;;;;;9.60;100.00;102104.47;6204632;22;46093;-86
2022/04/17 03:56:21;;;;;;;;;5.50;3.75;;;;;9.55;100.00;102101.16;6212509;22;44746;-87
2022/04/17 03:58:46;;;;;;;;;5.00;5.00;;;;;9.49;100.00;102098.75;6239736;22;44679;-85
2022/04/17 04:01:24;;;;;;;;;5.00;5.00;;;;;9.48;100.00;102097.91;6260680;22;44880;-87
2022/04/17 04:03:58;;;;;;;;;4.00;4.00;;;;;9.49;100.00;102098.75;6256841;22;45213;-86
2022/04/17 04:06:24;;;;;;;;;5.00;5.00;;;;;9.47;100.00;102095.28;6257602;22;44729;-88
2022/04/17 04:08:50;;;;;;;;;7.25;6.00;;;;;9.43;100.00;102086.63;6235520;22;44738;-88
2022/04/17 04:11:20;;;;;;;;;4.00;4.00;;;;;9.40;100.00;102091.16;6267998;22;44934;-88
2022/04/17 04:13:55;;;;;;;;;4.00;4.00;;;;;9.37;100.00;102083.31;6235279;22;46867;-87
2022/04/17 04:16:23;;;;;;;;;6.25;6.25;;;;;9.35;100.00;102093.16;6231505;22;44648;-87
2022/04/17 04:19:01;;;;;;;;;5.00;3.75;;;;;9.32;100.00;102083.50;6236186;22;44784;-87
2022/04/17 04:21:32;;;;;;;;;5.75;5.75;;;;;9.30;100.00;102098.63;6255027;22;45497;-88
2022/04/17 04:24:09;;;;;;;;;5.00;5.00;;;;;9.25;100.00;102087.34;6234183;22;45242;-88
2022/04/17 04:29:50;;;;;;;;;8.00;6.00;;;;;9.19;100.00;102088.47;6230921;22;44655;-86
2022/04/17 04:32:38;;;;;;;;;5.25;5.25;;;;;9.14;100.00;102082.47;6240898;22;44800;-88
2022/04/17 04:35:13;;;;;;;;;6.50;6.50;;;;;9.10;100.00;102080.00;6252146;22;45023;-87
2022/04/17 04:37:48;;;;;;;;;5.75;5.75;;;;;9.07;100.00;102082.75;6221743;22;44781;-86
2022/04/17 04:40:14;;;;;;;;;6.00;6.00;;;;;9.04;100.00;102082.88;6220062;22;44646;-88
2022/04/17 04:42:43;;;;;;;;;6.00;6.00;;;;;9.01;100.00;102076.78;6250325;22;45073;-87
2022/04/17 04:47:58;;;;;;;;;6.75;5.00;;;;;8.98;100.00;102081.31;6256958;22;44654;-86
2022/04/17 04:50:24;;;;;;;;;4.00;4.00;;;;;8.97;100.00;102088.41;6237049;22;45203;-88
2022/04/17 04:52:53;;;;;;;;;5.25;5.25;;;;;8.96;100.00;102085.84;6269697;22;44853;-89
2022/04/17 04:55:19;;;;;;;;;7.25;5.75;;;;;8.92;100.00;102087.72;6265632;22;44960;-88
2022/04/17 04:57:47;;;;;;;;;4.00;4.00;;;;;8.89;100.00;102082.53;6199911;22;45170;-88
2022/04/17 05:00:14;;;;;;;;;5.75;4.25;;;;;8.88;100.00;102086.13;6223146;22;45195;-88
2022/04/17 05:03:11;;;;;;;;;6.00;6.00;;;;;8.85;100.00;102088.91;6223687;22;45638;-87
2022/04/17 05:05:39;;;;;;;;;6.25;5.00;;;;;8.86;100.00;102081.81;6183588;22;44960;-88
2022/04/17 05:08:13;;;;;;;;;6.75;5.00;;;;;8.90;100.00;102084.28;6256067;22;44799;-88
2022/04/17 05:10:55;;;;;;;;;6.00;6.00;;;;;9.03;100.00;102089.97;6253637;22;44692;-88
2022/04/17 05:14:22;;;;;;;;;8.00;5.00;;;;;9.16;100.00;102096.53;6217317;22;44850;-86
2022/04/17 05:17:03;;;;;;;;;5.00;5.00;;;;;9.36;100.00;102101.03;6252230;22;45411;-88
2022/04/17 05:20:31;;;;;;;;;4.50;4.00;;;;;9.49;100.00;102106.72;6227654;22;45288;-87
2022/04/17 05:23:03;;;;;;;;;5.75;5.75;;;;;9.65;100.00;102110.47;6261382;22;45295;-87
2022/04/17 05:25:44;;;;;;;;;;;;;;;;;;;;;
2022/04/17 05:28:16;;;;;;;;;5.50;5.50;;;;;10.03;100.00;102108.88;6248167;22;74475;-87
2022/04/17 05:30:49;;;;;;;;;4.80;4.60;;;;;10.26;100.00;102107.06;6249034;22;44797;-88
2022/04/17 05:33:45;;;;;;;;;5.00;3.25;;;;;10.43;99.75;102114.25;6224913;22;44802;-87
2022/04/17 05:36:11;;;;;;;;;5.50;5.25;;;;;10.57;99.46;102113.66;6224301;22;45126;-90
2022/04/17 05:38:49;;;;;;;;;5.25;5.25;;;;;10.67;100.00;102109.66;6227160;22;45383;-87
2022/04/17 05:41:29;;;;;;;;;8.00;7.00;;;;;10.75;97.08;102110.19;6208075;22;45276;-87
2022/04/17 05:43:59;;;;;;;;;5.00;5.00;;;;;10.89;95.96;102109.53;6238577;22;45478;-89
2022/04/17 05:46:27;;;;;;;;;4.75;4.75;;;;;10.99;95.22;102105.53;6229749;22;44763;-87
2022/04/17 05:48:58;;;;;;;;;5.25;5.25;;;;;11.09;93.18;102116.59;6257149;22;46093;-88
2022/04/17 05:51:37;;;;;;;;;6.20;5.20;;;;;11.21;93.63;102121.31;6227816;22;45253;-88
2022/04/17 05:54:08;;;;;;;;;4.50;4.50;;;;;11.38;94.78;102112.53;6204741;22;45207;-85
2022/04/17 05:56:51;;;;;;;;;5.50;5.50;;;;;11.44;91.52;102107.78;6256033;22;44682;-88
2022/04/17 05:59:34;;;;;;;;;4.50;4.50;;;;;11.59;89.63;102104.38;6222246;22;47190;-89
2022/04/17 06:02:08;;;;;;;;;5.00;3.80;;;;;11.77;90.79;102105.25;6223720;22;44589;-88
2022/04/17 06:05:27;;;;;;;;;;;;;;;;;;;;;
2022/04/17 06:11:06;;;;;;;;;3.40;3.40;;;;;11.85;86.95;102114.72;6233016;22;45279;-87
2022/04/17 06:13:55;;;;;;;;;5.60;5.20;;;;;12.03;86.75;102127.06;6225739;22;44706;-88
2022/04/17 06:16:22;;;;;;;;;4.75;4.75;;;;;12.12;86.19;102115.94;6256253;22;44581;-89
2022/04/17 06:19:25;;;;;;;;;5.75;3.00;;;;;12.25;86.77;102122.38;6228128;22;44884;-87
2022/04/17 06:29:22;;;;;;;;;4.00;3.20;;;;;12.88;82.94;102111.03;6155925;23;44708;-87
2022/04/17 06:32:21;;;;;;;;;3.25;3.25;;;;;13.03;79.94;102120.00;6042278;23;44796;-87
2022/04/17 06:35:09;;;;;;;;;6.25;5.50;;;;;13.22;82.91;102112.75;6029457;23;44962;-88
2022/04/17 06:38:28;;;;;;;;;5.20;5.20;;;;;13.42;80.62;102108.09;6058498;23;44764;-87
2022/04/17 06:41:06;;;;;;;;;3.60;3.60;;;;;13.51;80.24;102108.41;6033026;23;44744;-87
2022/04/17 06:43:36;;;;;;;;;4.75;4.75;;;;;13.67;78.72;102115.53;6032274;23;44828;-88
2022/04/17 06:47:25;;;;;;;;;;;;;;;;;;;;;
2022/04/17 07:01:44;;;;;;;;;2.60;2.00;;;;;13.79;73.30;102105.03;5910238;24;45524;-89
2022/04/17 07:05:13;;;;;;;;;2.60;2.60;;;;;13.87;74.85;102104.56;5893920;24;45436;-88
2022/04/17 07:11:40;;;;;;;;;5.80;4.00;;;;;13.71;73.91;102090.38;5800725;24;45297;-88
2022/04/17 07:21:08;;;;;;;;;4.20;4.20;;;;;13.09;80.27;102074.31;5985063;23;44896;-87
2022/04/17 07:24:03;;;;;;;;;6.50;6.50;;;;;13.05;77.86;102068.31;5982718;23;45211;-88
2022/04/17 07:26:32;;;;;;;;;6.00;5.20;;;;;13.13;78.39;102075.88;5978091;23;45402;-88
2022/04/17 07:29:35;;;;;;;;;7.40;7.40;;;;;13.12;77.13;102067.00;5975300;23;45429;-88
2022/04/17 07:36:52;;;;;;;;;7.00;7.00;;;;;13.29;78.37;102071.41;6100911;23;44796;-88
2022/04/17 07:40:44;;;;;;;;;5.80;5.80;;;;;13.35;77.46;102065.72;5986196;23;45295;-88
2022/04/17 07:43:51;;;;;;;;;10.40;7.20;;;;;13.41;76.05;102056.50;5993380;23;44792;-87
2022/04/17 07:46:47;;;;;;;;;;;;;;;;;;;;;
2022/04/17 07:50:15;;;;;;;;;7.25;6.25;;;;;13.54;77.86;102051.31;5986979;23;68801;-89
2022/04/17 07:53:40;;;;;;;;;7.75;7.50;;;;;13.76;76.44;102050.91;5960841;23;46771;-88
2022/04/17 07:57:01;;;;;;;;;6.80;5.60;;;;;13.96;75.00;102063.06;5964495;23;44803;-88
2022/04/17 08:00:11;;;;;;;;;6.20;5.20;;;;;14.11;74.64;102052.31;5959685;23;44863;-89
2022/04/17 08:07:27;;;;;;;;;6.60;4.40;;;;;14.31;72.58;102044.88;5753807;24;45618;-87
2022/04/17 08:13:18;;;;;;;;;3.40;3.00;;;;;14.48;65.08;102050.09;5722590;24;44834;-86
2022/04/17 08:19:13;;;;;;;;;9.75;7.00;;;;;14.76;65.90;102033.16;5789995;24;45813;-90
2022/04/17 08:22:10;;;;;;;;;;;;;;;;;;;;;
2022/04/17 08:24:45;;;;;;;;;3.40;3.40;;;;;14.88;60.05;102034.19;5769424;24;68288;-89
2022/04/17 08:27:14;;;;;;;;;4.50;4.50;;;;;14.88;59.83;102024.34;5826815;24;44693;-88
2022/04/17 08:29:46;;;;;;;;;4.20;4.20;;;;;14.90;58.44;102011.75;5822981;24;46946;-87
2022/04/17 08:32:33;;;;;;;;;4.80;4.80;;;;;14.93;55.78;102025.88;5850095;24;44741;-88
2022/04/17 08:35:39;;;;;;;;;3.80;3.80;;;;;14.98;56.57;102021.94;5827334;24;44842;-89
2022/04/17 08:38:30;;;;;;;;;3.00;3.00;;;;;15.19;57.21;102021.50;5861370;24;44973;-87
2022/04/17 08:41:08;;;;;;;;;6.00;4.50;;;;;15.34;58.35;102023.16;5971980;23;45415;-89
2022/04/17 08:44:19;;;;;;;;;4.00;4.00;;;;;15.44;55.98;102024.28;6166003;23;44841;-86
2022/04/17 08:47:00;;;;;;;;;5.00;2.60;;;;;15.53;54.02;102018.31;6140288;23;44679;-84
2022/04/17 08:49:31;;;;;;;;;3.25;3.25;;;;;15.61;53.13;102017.75;6136688;23;44767;-86
2022/04/17 08:52:15;;;;;;;;;2.80;2.20;;;;;15.66;52.63;102010.31;6132241;23;45438;-88
2022/04/17 08:54:54;;;;;;;;;3.20;2.80;;;;;15.73;47.57;102018.81;6157223;23;45182;-89
2022/04/17 08:57:31;;;;;;;;;2.00;2.00;;;;;15.74;47.29;102010.66;6165639;22;44786;-90
2022/04/17 09:00:26;;;;;;;;;3.75;3.75;;;;;15.90;49.99;102021.16;6175179;22;44833;-89
2022/04/17 09:03:07;;;;;;;;;3.20;2.40;;;;;15.99;49.04;102008.97;6197784;22;45115;-88
2022/04/17 09:05:57;;;;;;;;;3.80;3.80;;;;;16.03;44.09;102007.78;6223974;22;44849;-90
2022/04/17 09:08:58;;;;;;;;;3.60;3.60;;;;;16.11;46.02;102010.81;6209558;22;44632;-87
2022/04/17 09:11:56;;;;;;;;;3.00;3.00;;;;;16.19;43.26;102014.63;6205625;22;45274;-88
2022/04/17 09:14:57;;;;;;;;;3.80;3.00;;;;;16.27;44.64;102005.22;6048200;23;45089;-88
2022/04/17 09:17:56;;;;;;;;;3.80;2.00;;;;;16.27;40.66;102011.44;6048034;23;44859;-89
2022/04/17 09:28:17;;;;;;;;;6.20;6.20;;;;;16.54;43.06;101997.03;5957714;23;45572;-89
2022/04/17 09:38:47;;;;;;;;;4.00;3.20;;;;;16.90;43.93;101982.78;5878905;24;44907;-90
2022/04/17 09:52:52;;;;;;;;;2.80;2.80;;;;;17.38;41.73;101964.81;5789501;24;45538;-89
2022/04/17 09:56:03;;;;;;;;;3.00;2.00;;;;;17.41;40.55;101964.59;5815598;24;45147;-87
2022/04/17 10:06:29;;;;;;;;;;;;;;;;;;;;;
2022/04/17 10:37:29;;;;;;;;;3.20;3.20;;;;;18.10;37.08;101905.47;5817645;24;45400;-89
2022/04/17 10:40:31;;;;;;;;;3.60;3.60;;;;;18.16;37.11;101901.44;5876341;24;44835;-87
2022/04/17 10:43:50;;;;;;;;;5.40;5.40;;;;;18.11;37.78;101904.50;5878002;24;44751;-90
2022/04/17 11:00:32;;;;;;;;;4.60;3.00;;;;;18.30;36.98;101885.03;5855754;24;44726;-88
2022/04/17 11:03:55;;;;;;;;;3.20;3.20;;;;;18.57;38.98;101876.53;5854041;24;45331;-91
2022/04/17 11:06:57;;;;;;;;;2.60;2.60;;;;;18.88;38.33;101868.63;5773422;24;44754;-90
2022/04/17 11:09:56;;;;;;;;;;;;;;;;;;;;;
2022/04/17 11:16:40;;;;;;;;;3.00;3.00;;;;;18.93;35.17;101850.25;5808512;24;44920;-89
2022/04/17 11:20:04;;;;;;;;;3.80;3.80;;;;;19.12;35.21;101849.53;5785329;24;44744;-90
2022/04/17 11:26:32;;;;;;;;;3.40;3.40;;;;;19.12;33.43;101834.22;5938607;24;44718;-89
2022/04/17 11:29:35;;;;;;;;;6.60;5.80;;;;;19.37;34.73;101824.03;5929714;24;45025;-88
2022/04/17 11:33:00;;;;;;;;;5.80;5.00;;;;;19.57;33.33;101830.38;5845802;24;45847;-90
2022/04/17 11:36:03;;;;;;;;;;;;;;;;;;;;;
2022/04/17 11:38:55;;;;;;;;;3.00;3.00;;;;;19.75;38.96;101804.53;5901844;24;70421;-90
2022/04/17 11:42:12;;;;;;;;;2.80;2.00;;;;;19.49;32.10;101814.88;5901919;24;45894;-88
2022/04/17 12:27:13;;;;;;;;;2.20;2.20;;;;;20.93;29.24;101748.66;5851410;24;44764;-90
2022/04/17 12:30:25;;;;;;;;;6.20;4.20;;;;;21.12;28.75;101749.63;5855712;24;44896;-90
2022/04/17 12:33:29;;;;;;;;;3.20;3.20;;;;;21.31;29.96;101736.06;5826289;24;44778;-90
2022/04/17 12:36:27;;;;;;;;;4.40;3.00;;;;;21.39;28.05;101730.78;5807261;24;45040;-89
2022/04/17 12:39:11;;;;;;;;;3.00;3.00;;;;;21.25;28.40;101728.53;5836583;24;44742;-91
2022/04/17 12:42:46;;;;;;;;;4.20;3.20;;;;;21.35;29.62;101732.09;5906358;24;44690;-90
2022/04/17 12:45:32;;;;;;;;;3.40;3.40;;;;;21.53;30.06;101716.78;5898465;24;44762;-90
2022/04/17 12:48:20;;;;;;;;;5.20;4.20;;;;;21.49;28.60;101718.06;5875647;24;45431;-90
2022/04/17 12:51:09;;;;;;;;;3.00;3.00;;;;;21.64;28.84;101723.84;5892104;24;44691;-90
2022/04/17 12:54:28;;;;;;;;;2.00;2.00;;;;;21.80;29.32;101713.19;5906783;24;44878;-89
2022/04/17 13:00:58;;;;;;;;;2.60;2.60;;;;;21.97;27.99;101692.59;6015075;23;45156;-89
2022/04/17 13:03:57;;;;;;;;;2.00;2.00;;;;;22.03;28.91;101701.94;5996340;23;44758;-92
2022/04/17 13:10:52;;;;;;;;;;;;;;;;;;;;;
2022/04/17 13:17:41;;;;;;;;;1.80;1.80;;;;;22.57;29.34;101671.13;5820194;24;45300;-89
2022/04/17 13:24:31;;;;;;;;;1.40;1.40;;;;;22.78;27.45;101667.22;5773003;24;44695;-90
2022/04/17 13:27:30;;;;;;;;;4.20;3.00;;;;;22.64;27.81;101667.81;5677857;25;45127;-89
2022/04/17 13:30:37;;;;;;;;;3.60;2.60;;;;;22.72;28.36;101673.25;5699784;25;44760;-90
2022/04/17 13:33:18;;;;;;;;;2.60;2.60;;;;;22.90;28.29;101657.84;5679885;25;45735;-91
2022/04/17 13:36:32;;;;;;;;;1.40;1.40;;;;;22.99;25.88;101656.88;5702058;25;44781;-91
2022/04/17 13:39:25;;;;;;;;;;;;;;;;;;;;;
2022/04/17 13:42:25;;;;;;;;;2.00;2.00;;;;;23.27;26.99;101646.66;5756254;24;71400;-90
2022/04/17 13:45:43;;;;;;;;;3.60;2.80;;;;;23.63;26.84;101648.31;5772609;24;44807;-91
2022/04/17 13:48:38;;;;;;;;;12.60;9.00;;;;;24.31;26.61;101642.63;5687736;25;44831;-89
2022/04/17 13:58:42;;;;;;;;;1.00;1.00;;;;;26.78;22.06;101629.25;5705902;25;44744;-91
2022/04/17 14:02:20;;;;;;;;;;;;;;;;;;;;;
2022/04/17 14:05:07;;;;;;;;;;;;;;;;;;;;;
2022/04/17 14:08:25;;;;;;;;;;;;;;;;;;;;;
2022/04/17 14:11:59;;;;;;;;;2.20;1.00;;;;;28.48;19.79;101607.03;5946768;23;44878;-90
2022/04/17 14:15:35;;;;;;;;;;;;;;;;;;;;;
2022/04/17 14:21:36;;;;;;;;;1.00;1.00;;;;;29.31;17.93;101600.56;5769692;24;44855;-90
2022/04/17 14:25:05;;;;;;;;;;;;;;;;;;;;;
2022/04/17 14:28:08;;;;;;;;;1.00;1.00;;;;;29.30;16.96;101600.75;5670894;25;70467;-90
2022/04/17 14:34:46;;;;;;;;;;;;;;;;;;;;;
2022/04/17 14:38:00;;;;;;;;;2.00;1.00;;;;;30.11;17.19;101584.28;5734517;24;68182;-90
2022/04/17 14:40:56;;;;;;;;;0.00;0.00;;;;;30.27;16.19;101578.41;5778369;24;44776;-89
2022/04/17 14:47:21;;;;;;;;;;;;;;;;;;;;;
2022/04/17 14:53:30;;;;;;;;;;;;;;;;;;;;;
2022/04/17 14:56:13;;;;;;;;;1.00;1.00;;;;;30.82;16.24;101567.16;5756708;24;75918;-89
2022/04/17 14:59:03;;;;;;;;;1.00;1.00;;;;;30.82;15.69;101562.50;5722170;24;44951;-88
2022/04/17 15:02:24;;;;;;;;;;;;;;;;;;;;;
2022/04/17 15:05:23;;;;;;;;;0.60;0.60;;;;;31.53;15.34;101550.56;5848686;24;70256;-88
2022/04/17 15:12:01;;;;;;;;;0.00;0.00;;;;;31.60;13.65;101550.50;5817893;24;44754;-91
2022/04/17 15:18:34;;;;;;;;;;;;;;;;;;;;;
2022/04/17 15:21:40;;;;;;;;;1.00;1.00;;;;;30.62;12.89;101512.31;5883926;24;74611;-90
2022/04/17 17:51:22;;;;;;;;;3.00;2.00;;;;;23.11;26.82;101445.13;6249408;22;45762;-89
2022/04/17 17:58:11;;;;;;;;;0.40;0.40;;;;;22.43;27.47;101441.53;6108581;23;45237;-91
2022/04/17 18:01:09;;;;;;;;;;;;;;;;;;;;;
2022/04/17 18:07:13;;;;;;;;;2.00;2.00;;;;;21.63;29.93;101448.13;6115206;23;44723;-88
2022/04/17 18:20:20;;;;;;;;;1.00;1.00;;;;;20.51;34.07;101445.81;6056152;23;44602;-90
2022/04/17 18:23:37;;;;;;;;;2.00;2.00;;;;;20.28;33.88;101454.25;6026558;23;44891;-90
2022/04/17 18:26:45;;;;;;;;;1.00;1.00;;;;;20.05;34.45;101454.78;6029224;23;45005;-90
2022/04/17 18:29:31;;;;;;;;;3.40;3.40;;;;;19.83;34.62;101450.59;6055158;23;44978;-91
2022/04/17 18:36:25;;;;;;;;;3.40;3.40;;;;;19.42;35.43;101453.41;6022487;23;45056;-90
2022/04/17 18:39:55;;;;;;;;;2.60;2.00;;;;;19.24;36.41;101449.72;5992022;23;45479;-90
2022/04/17 18:49:17;;;;;;;;;2.00;2.00;;;;;18.66;40.11;101452.31;5932519;24;44701;-90
2022/04/17 18:55:14;;;;;;;;;2.60;2.60;;;;;18.33;42.02;101453.50;5909284;24;45429;-90
2022/04/17 18:58:02;;;;;;;;;;;;;;;;;;;;;
2022/04/17 19:01:21;;;;;;;;;2.20;2.20;;;;;18.05;43.94;101457.75;5910586;24;68890;-90
2022/04/17 19:07:24;;;;;;;;;4.00;3.40;;;;;17.79;46.41;101454.59;5940045;24;44843;-90
2022/04/17 19:09:58;;;;;;;;;4.60;4.00;;;;;17.71;46.03;101466.84;5977456;23;44756;-92
2022/04/17 19:15:50;;;;;;;;;3.00;3.00;;;;;17.55;47.54;101463.78;5953303;23;44924;-91
2022/04/17 19:22:02;;;;;;;;;8.40;7.00;;;;;17.37;49.85;101455.41;6005761;23;45459;-91
2022/04/17 19:27:57;;;;;;;;;7.25;7.25;;;;;17.25;50.23;101458.28;6078778;23;45204;-90
2022/04/17 19:36:51;;;;;;;;;5.40;5.40;;;;;17.04;52.56;101455.56;6057479;23;44654;-89
2022/04/17 19:39:35;;;;;;;;;6.75;5.25;;;;;16.95;53.17;101452.63;6087741;23;44792;-90
2022/04/17 19:42:20;;;;;;;;;9.25;8.50;;;;;16.88;54.62;101456.81;6171565;23;46654;-90
2022/04/17 19:48:00;;;;;;;;;12.00;8.50;;;;;16.75;56.67;101455.25;6168264;23;44774;-89
2022/04/17 19:50:45;;;;;;;;;10.80;8.40;;;;;16.69;56.27;101457.44;6178792;23;44821;-88
2022/04/17 19:53:13;;;;;;;;;7.60;7.60;;;;;16.65;55.85;101449.75;6145870;23;45148;-89
2022/04/17 19:56:05;;;;;;;;;7.00;7.00;;;;;16.63;54.84;101459.75;6201233;23;44563;-90
2022/04/17 19:58:50;;;;;;;;;6.20;6.20;;;;;16.63;56.11;101452.56;6201101;23;44724;-90
2022/04/17 20:01:30;;;;;;;;;7.00;7.00;;;;;16.61;55.47;101446.47;6198764;23;45376;-91
2022/04/17 20:04:10;;;;;;;;;11.40;6.00;;;;;16.59;57.39;101443.06;6151532;23;45490;-89
2022/04/17 20:10:09;;;;;;;;;7.80;7.20;;;;;16.50;56.43;101453.69;6197193;23;44764;-90
2022/04/17 20:13:37;;;;;;;;;10.00;5.50;;;;;16.45;56.94;101443.31;6179759;23;44850;-88
2022/04/17 20:16:19;;;;;;;;;0.40;0.40;;;;;16.41;56.81;101447.22;6080637;23;44973;-90
2022/04/17 20:19:38;;;;;;;;;;;;;;;;;;;;;
2022/04/17 20:22:37;;;;;;;;;9.40;7.80;;;;;16.30;56.75;101440.03;6105104;23;68167;-88
2022/04/17 21:48:26;;;;;;;;;2.00;2.00;;;;;15.24;55.98;101417.06;6164527;23;44620;-91
2022/04/17 21:54:19;;;;;;;;;3.00;2.40;;;;;15.12;54.71;101418.81;6104203;23;45567;-90
2022/04/17 22:07:40;;;;;;;;;1.00;1.00;;;;;14.97;55.78;101420.81;6003980;23;45067;-88
2022/04/17 22:10:55;;;;;;;;;2.00;2.00;;;;;14.89;57.29;101425.88;5886564;24;44726;-89
2022/04/17 22:13:30;;;;;;;;;2.00;2.00;;;;;14.81;57.92;101415.75;5880256;24;45236;-90
2022/04/17 22:19:33;;;;;;;;;1.00;1.00;;;;;14.72;55.77;101424.47;5747497;24;44830;-89
2022/04/17 22:21:59;;;;;;;;;1.00;1.00;;;;;14.68;56.86;101424.78;5753336;24;44663;-88
2022/04/17 22:25:04;;;;;;;;;2.00;2.00;;;;;14.63;56.89;101425.97;5757340;24;44705;-87
2022/04/17 22:27:32;;;;;;;;;3.00;2.00;;;;;14.57;57.38;101428.25;5715365;24;44853;-87